createdAt,value
2023-02-05T00:11:40.723Z,92.93
2023-02-05T00:14:11.979Z,93.28
2023-02-05T00:16:42.060Z,93.37
2023-02-05T00:19:11.857Z,94.18
2023-02-05T00:21:42.659Z,94.29
2023-02-05T00:24:13.507Z,93.97
2023-02-05T00:26:43.903Z,94.13
2023-02-05T00:29:14.354Z,94.32
2023-02-05T00:31:45.412Z,94.71
2023-02-05T00:34:16.694Z,94.83
2023-02-05T00:36:46.951Z,95.23
2023-02-05T00:39:17.228Z,95.67
2023-02-05T00:41:49.235Z,95.03
2023-02-05T00:44:20.044Z,95.45
2023-02-05T00:46:51.841Z,96.09
2023-02-05T00:49:22.086Z,95.69
2023-02-05T00:51:51.886Z,95.54
2023-02-05T00:54:22.218Z,96.01
2023-02-05T00:56:52.515Z,95.62
2023-02-05T00:59:24.305Z,95.63
2023-02-05T01:01:54.504Z,96.31
2023-02-05T01:04:24.735Z,96.71
2023-02-05T01:06:55.117Z,96.81
2023-02-05T01:09:25.966Z,97.02
2023-02-05T01:11:57.883Z,96.99
2023-02-05T01:14:28.094Z,96.95
2023-02-05T01:16:57.935Z,97.29
2023-02-05T01:19:29.791Z,97.56
2023-02-05T01:22:01.581Z,97.71
2023-02-05T01:24:32.506Z,97.97
2023-02-05T01:27:02.371Z,98.24
2023-02-05T01:29:33.019Z,98.54
2023-02-05T01:32:04.744Z,98.53
2023-02-05T01:34:36.366Z,98.39
2023-02-05T01:37:06.400Z,98.15
2023-02-05T01:39:39.258Z,97.68
2023-02-05T01:42:19.155Z,96.97
2023-02-05T01:45:38.135Z,96.70
2023-02-05T01:48:11.038Z,95.93
2023-02-05T01:50:55.297Z,95.95
2023-02-05T01:53:30.582Z,96.03
2023-02-05T01:56:28.563Z,95.51
2023-02-05T01:59:04.054Z,94.81
2023-02-05T02:01:34.605Z,94.51
2023-02-05T02:04:05.832Z,93.37
2023-02-05T02:06:39.468Z,92.67
2023-02-05T02:09:11.147Z,92.56
2023-02-05T02:11:45.816Z,92.91
2023-02-05T02:14:17.439Z,92.23
2023-02-05T02:16:49.123Z,91.19
2023-02-05T02:19:34.349Z,91.30
2023-02-05T02:22:16.807Z,91.33
2023-02-05T02:25:06.416Z,91.00
2023-02-05T02:28:01.400Z,91.48
2023-02-05T02:30:41.113Z,91.67
2023-02-05T02:33:27.927Z,91.80
2023-02-05T02:36:20.250Z,92.48
2023-02-05T02:39:09.507Z,92.76
2023-02-05T02:41:50.302Z,92.77
2023-02-05T02:44:50.044Z,93.53
2023-02-05T02:47:29.840Z,92.96
2023-02-05T02:50:05.696Z,93.20
2023-02-05T02:52:40.092Z,93.42
2023-02-05T02:55:15.264Z,94.41
2023-02-05T02:57:50.602Z,94.56
2023-02-05T03:00:28.773Z,94.96
2023-02-05T03:03:04.503Z,94.80
2023-02-05T03:05:37.045Z,95.11
2023-02-05T03:08:19.820Z,95.56
2023-02-05T03:10:58.255Z,95.43
2023-02-05T03:13:29.572Z,95.40
2023-02-05T03:16:02.804Z,96.19
2023-02-05T03:18:34.203Z,95.87
2023-02-05T03:21:22.531Z,96.07
2023-02-05T03:23:53.137Z,96.74
2023-02-05T03:26:32.984Z,96.96
2023-02-05T03:29:18.870Z,96.64
2023-02-05T03:32:08.657Z,96.11
2023-02-05T03:34:57.156Z,96.17
2023-02-05T03:37:27.605Z,96.11
2023-02-05T03:40:35.471Z,96.04
2023-02-05T03:43:32.197Z,96.28
2023-02-05T03:46:04.093Z,96.38
2023-02-05T03:49:32.511Z,96.73
2023-02-05T03:52:17.529Z,97.30
2023-02-05T03:55:01.680Z,97.35
2023-02-05T03:58:00.783Z,97.36
2023-02-05T04:00:33.153Z,97.66
2023-02-05T04:03:06.418Z,97.70
2023-02-05T04:05:37.983Z,97.68
2023-02-05T04:08:08.913Z,97.69
2023-02-05T04:10:46.572Z,97.85
2023-02-05T04:13:17.303Z,98.03
2023-02-05T04:15:51.774Z,98.41
2023-02-05T04:18:22.636Z,98.27
2023-02-05T04:20:53.279Z,98.71
2023-02-05T04:23:27.493Z,98.35
2023-02-05T04:26:00.763Z,98.38
2023-02-05T04:28:37.834Z,98.21
2023-02-05T04:31:13.510Z,98.24
2023-02-05T04:33:49.314Z,98.37
2023-02-05T04:36:21.525Z,98.37
2023-02-05T04:38:52.692Z,98.22
2023-02-05T04:41:23.938Z,98.38
2023-02-05T04:43:54.812Z,98.46
2023-02-05T04:46:24.819Z,98.61
2023-02-05T04:48:56.158Z,98.77
2023-02-05T04:51:26.895Z,98.80
2023-02-05T04:53:57.326Z,98.87
2023-02-05T04:56:27.215Z,99.03
2023-02-05T04:58:57.436Z,99.05
2023-02-05T05:01:28.182Z,98.90
2023-02-05T05:04:00.695Z,98.91
2023-02-05T05:06:30.661Z,98.95
2023-02-05T05:09:00.432Z,98.92
2023-02-05T05:11:32.364Z,99.20
2023-02-05T05:14:02.904Z,99.51
2023-02-05T05:16:33.440Z,99.65
2023-02-05T05:19:03.159Z,99.69
2023-02-05T05:21:33.419Z,99.84
2023-02-05T05:24:03.810Z,99.99
2023-02-05T05:26:34.530Z,99.90
2023-02-05T05:29:04.435Z,99.87
2023-02-05T05:31:34.584Z,99.92
2023-02-05T05:34:04.356Z,99.92
2023-02-05T05:36:34.660Z,99.99
2023-02-05T05:39:22.975Z,99.99
2023-02-05T05:42:13.845Z,99.99
2023-02-05T05:44:44.020Z,99.99
2023-02-05T05:47:13.928Z,99.92
2023-02-05T05:49:44.672Z,99.99
2023-02-05T05:52:15.583Z,99.99
2023-02-05T05:54:46.262Z,99.95
2023-02-05T05:57:16.111Z,99.99
2023-02-05T05:59:46.525Z,99.99
2023-02-05T06:02:16.754Z,99.99
2023-02-05T06:04:48.915Z,99.99
2023-02-05T06:07:19.286Z,99.99
2023-02-05T06:09:49.000Z,99.99
2023-02-05T06:12:19.693Z,99.99
2023-02-05T06:14:49.856Z,99.99
2023-02-05T06:17:20.042Z,99.99
2023-02-05T06:19:49.902Z,99.99
2023-02-05T06:22:20.309Z,99.99
2023-02-05T06:24:50.050Z,99.99
2023-02-05T06:27:20.844Z,99.99
2023-02-05T06:29:52.165Z,99.99
2023-02-05T06:32:25.205Z,99.99
2023-02-05T06:34:57.389Z,99.99
2023-02-05T06:37:46.251Z,99.99
2023-02-05T06:40:19.150Z,99.99
2023-02-05T06:42:51.017Z,99.99
2023-02-05T06:45:22.154Z,99.99
2023-02-05T06:47:54.443Z,99.99
2023-02-05T06:50:25.375Z,99.99
2023-02-05T06:52:57.111Z,99.99
2023-02-05T06:55:27.940Z,99.99
2023-02-05T06:57:59.006Z,99.86
2023-02-05T07:00:29.823Z,99.60
2023-02-05T07:03:02.471Z,99.48
2023-02-05T07:05:33.348Z,99.21
2023-02-05T07:08:05.990Z,98.91
2023-02-05T07:10:37.303Z,98.75
2023-02-05T07:13:09.845Z,98.47
2023-02-05T07:15:40.194Z,98.66
2023-02-05T07:18:09.934Z,98.62
2023-02-05T07:20:40.544Z,98.81
2023-02-05T07:23:10.894Z,98.57
2023-02-05T07:25:43.707Z,98.51
2023-02-05T07:28:15.432Z,98.47
2023-02-05T07:30:45.425Z,98.32
2023-02-05T07:33:15.752Z,98.28
2023-02-05T07:35:45.750Z,98.25
2023-02-05T07:38:16.559Z,98.29
2023-02-05T07:40:46.937Z,98.14
2023-02-05T07:43:17.519Z,98.17
2023-02-05T07:45:47.248Z,98.25
2023-02-05T07:48:17.775Z,98.54
2023-02-05T07:50:47.617Z,98.92
2023-02-05T07:53:18.461Z,98.56
2023-02-05T07:55:48.259Z,98.60
2023-02-05T07:58:18.910Z,98.78
2023-02-05T08:00:49.955Z,98.88
2023-02-05T08:03:22.453Z,98.65
2023-02-05T08:05:53.745Z,98.89
2023-02-05T08:08:23.766Z,98.65
2023-02-05T08:11:01.912Z,98.60
2023-02-05T08:13:34.214Z,98.77
2023-02-05T08:16:09.116Z,98.86
2023-02-05T08:18:39.074Z,98.85
2023-02-05T08:21:09.525Z,98.96
2023-02-05T08:23:40.123Z,99.14
2023-02-05T08:26:09.995Z,99.08
2023-02-05T08:28:41.408Z,98.92
2023-02-05T08:31:17.035Z,99.17
2023-02-05T08:33:49.281Z,98.94
2023-02-05T08:36:19.935Z,98.89
2023-02-05T08:38:50.760Z,98.58
2023-02-05T08:41:20.483Z,98.72
2023-02-05T08:43:52.891Z,98.61
2023-02-05T08:46:33.831Z,98.50
2023-02-05T08:49:14.940Z,98.32
2023-02-05T08:51:46.159Z,98.46
2023-02-05T08:54:17.219Z,98.10
2023-02-05T08:56:51.924Z,98.07
2023-02-05T08:59:22.634Z,98.39
2023-02-05T09:01:52.504Z,98.41
2023-02-05T09:04:27.758Z,98.18
2023-02-05T09:06:58.566Z,98.02
2023-02-05T09:09:28.404Z,97.76
2023-02-05T09:12:00.328Z,97.76
2023-02-05T09:14:37.367Z,98.08
2023-02-05T09:17:10.496Z,97.98
2023-02-05T09:19:42.642Z,98.49
2023-02-05T09:22:13.003Z,98.46
2023-02-05T09:24:44.776Z,98.28
2023-02-05T09:27:16.115Z,98.19
2023-02-05T09:29:47.146Z,98.28
2023-02-05T09:32:16.907Z,98.06
2023-02-05T09:34:47.697Z,98.44
2023-02-05T09:37:18.772Z,97.98
2023-02-05T09:42:49.996Z,98.23
2023-02-05T09:45:39.445Z,98.02
2023-02-05T09:48:31.395Z,97.49
2023-02-05T09:51:03.139Z,96.07
2023-02-05T09:53:42.804Z,95.51
2023-02-05T09:56:16.066Z,94.49
2023-02-05T09:58:51.126Z,94.00
2023-02-05T10:01:36.080Z,92.31
2023-02-05T10:04:08.802Z,90.58
2023-02-05T10:06:54.355Z,90.64
2023-02-05T10:09:58.777Z,89.29
2023-02-05T10:12:31.717Z,86.47
2023-02-05T10:15:17.792Z,87.07
2023-02-05T10:18:16.500Z,86.70
2023-02-05T10:21:11.769Z,86.45
2023-02-05T10:23:51.581Z,86.51
2023-02-05T10:26:25.273Z,85.11
2023-02-05T10:29:22.374Z,86.00
2023-02-05T10:32:17.020Z,85.51
2023-02-05T10:35:08.845Z,82.94
2023-02-05T10:37:57.956Z,77.80
2023-02-05T10:40:40.517Z,75.25
2023-02-05T10:43:30.972Z,79.10
2023-02-05T10:46:02.560Z,73.86
2023-02-05T10:48:50.802Z,70.75
2023-02-05T10:51:39.615Z,70.49
2023-02-05T10:54:29.442Z,68.80
2023-02-05T10:57:01.782Z,73.22
2023-02-05T10:59:37.899Z,74.90
2023-02-05T11:02:10.528Z,75.34
2023-02-05T11:04:50.213Z,75.87
2023-02-05T11:07:39.901Z,72.00
2023-02-05T11:10:28.191Z,71.35
2023-02-05T11:13:20.330Z,68.78
2023-02-05T11:16:12.168Z,71.34
2023-02-05T11:18:47.604Z,69.22
2023-02-05T11:21:17.875Z,66.90
2023-02-05T11:23:58.848Z,67.24
2023-02-05T11:26:30.669Z,65.23
2023-02-05T11:29:21.791Z,70.61
2023-02-05T11:31:52.237Z,67.66
2023-02-05T11:34:22.195Z,63.02
2023-02-05T11:36:56.537Z,65.38
2023-02-05T11:39:30.035Z,64.08
2023-02-05T11:42:18.106Z,67.60
2023-02-05T11:45:00.324Z,63.47
2023-02-05T11:47:42.085Z,63.92
2023-02-05T11:50:27.273Z,64.66
2023-02-05T11:53:10.585Z,64.58
2023-02-05T11:55:42.036Z,62.86
2023-02-05T11:58:34.835Z,65.69
2023-02-05T12:01:22.502Z,62.84
2023-02-05T12:04:22.822Z,66.56
2023-02-05T12:07:00.683Z,62.21
2023-02-05T12:09:30.910Z,62.01
2023-02-05T12:12:22.765Z,62.79
2023-02-05T12:15:24.015Z,65.57
2023-02-05T12:17:59.957Z,65.46
2023-02-05T12:20:39.377Z,60.05
2023-02-05T12:23:33.626Z,64.04
2023-02-05T12:26:32.017Z,63.31
2023-02-05T12:29:22.839Z,61.39
2023-02-05T12:32:15.355Z,63.56
2023-02-05T12:35:06.538Z,67.63
2023-02-05T12:37:45.844Z,62.38
2023-02-05T12:40:34.258Z,61.80
2023-02-05T12:43:39.485Z,62.85
2023-02-05T12:46:20.408Z,57.70
2023-02-05T12:49:17.393Z,60.33
2023-02-05T12:51:56.405Z,59.33
2023-02-05T12:54:47.673Z,57.41
2023-02-05T12:57:24.314Z,55.50
2023-02-05T13:00:04.213Z,60.62
2023-02-05T13:02:43.245Z,59.07
2023-02-05T13:05:34.655Z,60.74
2023-02-05T13:08:05.168Z,57.55
2023-02-05T13:11:00.347Z,60.16
2023-02-05T13:13:38.404Z,57.94
2023-02-05T13:16:13.202Z,55.27
2023-02-05T13:18:46.294Z,60.21
2023-02-05T13:21:40.838Z,56.67
2023-02-05T13:24:51.812Z,57.93
2023-02-05T13:27:50.464Z,56.14
2023-02-05T13:30:28.630Z,53.88
2023-02-05T13:33:04.678Z,55.06
2023-02-05T13:36:23.712Z,56.21
2023-02-05T13:39:28.853Z,58.03
2023-02-05T13:42:25.499Z,57.27
2023-02-05T13:45:34.782Z,57.02
2023-02-05T13:48:27.987Z,53.29
2023-02-05T13:51:23.565Z,55.37
2023-02-05T13:54:22.003Z,54.31
2023-02-05T13:57:04.458Z,55.95
2023-02-05T13:59:44.766Z,52.75
2023-02-05T14:02:43.038Z,55.19
2023-02-05T14:05:15.690Z,50.07
2023-02-05T14:07:50.772Z,55.10
2023-02-05T14:10:31.377Z,52.44
2023-02-05T14:13:26.864Z,52.17
2023-02-05T14:16:01.681Z,50.67
2023-02-05T14:18:47.772Z,52.17
2023-02-05T14:21:33.491Z,52.76
2023-02-05T14:24:24.790Z,48.89
2023-02-05T14:27:01.854Z,49.83
2023-02-05T14:29:49.451Z,50.78
2023-02-05T14:32:28.741Z,50.05
2023-02-05T14:35:01.924Z,47.48
2023-02-05T14:37:37.918Z,47.56
2023-02-05T14:40:37.085Z,51.76
2023-02-05T14:43:18.020Z,47.75
2023-02-05T14:45:50.282Z,50.50
2023-02-05T14:48:32.776Z,48.96
2023-02-05T14:51:23.164Z,46.73
2023-02-05T14:54:15.258Z,50.30
2023-02-05T14:56:53.370Z,47.78
2023-02-05T14:59:53.409Z,50.00
2023-02-05T15:02:51.873Z,48.76
2023-02-05T15:05:46.154Z,49.75
2023-02-05T15:08:36.799Z,50.97
2023-02-05T15:11:28.810Z,47.66
2023-02-05T15:14:25.472Z,48.34
2023-02-05T15:17:07.891Z,46.05
2023-02-05T15:19:47.608Z,46.90
2023-02-05T15:22:40.172Z,47.99
2023-02-05T15:25:42.528Z,49.02
2023-02-05T15:28:33.194Z,44.98
2023-02-05T15:31:27.034Z,40.94
2023-02-05T15:34:09.179Z,44.47
2023-02-05T15:36:47.123Z,41.46
2023-02-05T15:39:32.037Z,46.08
2023-02-05T15:42:05.353Z,44.95
2023-02-05T15:44:38.661Z,42.94
2023-02-05T15:47:15.542Z,43.47
2023-02-05T15:49:59.381Z,43.78
2023-02-05T15:52:32.728Z,45.27
2023-02-05T15:55:14.656Z,41.98
2023-02-05T15:57:46.500Z,44.35
2023-02-05T16:00:26.688Z,42.97
2023-02-05T16:02:59.124Z,42.59
2023-02-05T16:05:31.378Z,44.53
2023-02-05T16:08:04.763Z,44.64
2023-02-05T16:10:37.455Z,42.17
2023-02-05T16:13:18.540Z,44.06
2023-02-05T16:15:58.773Z,43.62
2023-02-05T16:18:39.507Z,43.63
2023-02-05T16:21:19.511Z,46.78
2023-02-05T16:23:58.821Z,42.40
2023-02-05T16:26:44.259Z,47.73
2023-02-05T16:29:47.756Z,46.41
2023-02-05T16:32:36.762Z,48.65
2023-02-05T16:35:10.332Z,43.09
2023-02-05T16:37:41.175Z,45.32
2023-02-05T16:40:14.417Z,47.53
2023-02-05T16:42:47.781Z,48.39
2023-02-05T16:45:28.524Z,50.33
2023-02-05T16:48:25.203Z,47.76
2023-02-05T16:50:59.134Z,44.41
2023-02-05T16:53:34.548Z,48.81
2023-02-05T16:56:27.432Z,48.99
2023-02-05T16:59:01.353Z,48.15
2023-02-05T17:01:41.587Z,51.49
2023-02-05T17:04:28.802Z,50.06
2023-02-05T17:07:03.006Z,48.32
2023-02-05T17:09:41.658Z,50.62
2023-02-05T17:12:24.350Z,48.80
2023-02-05T17:14:59.862Z,51.12
2023-02-05T17:17:32.916Z,49.32
2023-02-05T17:20:19.739Z,49.46
2023-02-05T17:23:07.910Z,49.61
2023-02-05T17:25:41.871Z,50.29
2023-02-05T17:28:17.590Z,47.70
2023-02-05T17:30:51.355Z,48.67
2023-02-05T17:33:25.493Z,50.58
2023-02-05T17:35:55.997Z,52.19
2023-02-05T17:38:26.255Z,52.33
2023-02-05T17:41:16.802Z,49.57
2023-02-05T17:43:47.164Z,49.09
2023-02-05T17:46:18.729Z,50.97
2023-02-05T17:48:48.924Z,51.21
2023-02-05T17:51:22.004Z,50.33
2023-02-05T17:53:53.465Z,50.00
2023-02-05T17:56:24.567Z,51.49
2023-02-05T17:58:56.879Z,49.87
2023-02-05T18:01:27.208Z,49.52
2023-02-05T18:03:57.882Z,49.74
2023-02-05T18:06:29.638Z,50.27
2023-02-05T18:08:59.794Z,51.42
2023-02-05T18:11:30.554Z,51.24
2023-02-05T18:14:01.252Z,53.39
2023-02-05T18:16:32.027Z,48.33
2023-02-05T18:19:03.406Z,53.70
2023-02-05T18:21:33.188Z,49.33
2023-02-05T18:24:04.651Z,46.74
2023-02-05T18:26:35.283Z,46.87
2023-02-05T18:29:05.606Z,46.58
2023-02-05T18:31:36.354Z,48.04
2023-02-05T18:34:06.207Z,46.57
2023-02-05T18:36:37.616Z,47.31
2023-02-05T18:39:10.859Z,47.09
2023-02-05T18:41:42.359Z,45.56
2023-02-05T18:44:12.619Z,45.91
2023-02-05T18:46:42.633Z,46.00
2023-02-05T18:49:12.978Z,45.17
2023-02-05T18:51:43.438Z,49.38
2023-02-05T18:54:14.136Z,48.86
2023-02-05T18:56:44.297Z,48.53
2023-02-05T18:59:17.245Z,51.15
2023-02-05T19:01:47.621Z,49.47
2023-02-05T19:04:19.970Z,49.63
2023-02-05T19:06:54.559Z,49.42
2023-02-05T19:09:26.739Z,49.66
2023-02-05T19:11:57.768Z,50.91
2023-02-05T19:14:28.349Z,51.88
2023-02-05T19:16:58.900Z,51.67
2023-02-05T19:19:28.901Z,47.67
2023-02-05T19:22:07.705Z,52.01
2023-02-05T19:24:38.374Z,56.55
2023-02-05T19:27:09.468Z,49.84
2023-02-05T19:29:42.027Z,51.27
2023-02-05T19:32:12.341Z,50.22
2023-02-05T19:34:44.335Z,52.96
2023-02-05T19:37:15.144Z,52.73
2023-02-05T19:39:45.356Z,54.15
2023-02-05T19:42:15.305Z,54.38
2023-02-05T19:44:46.348Z,53.88
2023-02-05T19:47:17.560Z,54.85
2023-02-05T19:49:47.775Z,54.69
2023-02-05T19:52:18.291Z,56.00
2023-02-05T19:54:49.004Z,56.27
2023-02-05T19:57:20.130Z,54.84
2023-02-05T19:59:51.573Z,53.44
2023-02-05T20:02:22.878Z,55.91
2023-02-05T20:04:53.333Z,56.66
2023-02-05T20:07:23.708Z,55.00
2023-02-05T20:09:54.279Z,55.83
2023-02-05T20:12:24.834Z,55.45
2023-02-05T20:14:55.993Z,55.77
2023-02-05T20:17:26.466Z,56.88
2023-02-05T20:20:10.159Z,54.65
2023-02-05T20:22:42.760Z,57.98
2023-02-05T20:25:12.644Z,58.42
2023-02-05T20:27:43.596Z,60.30
2023-02-05T20:30:34.470Z,59.74
2023-02-05T20:46:58.017Z,58.21
2023-02-05T20:49:28.848Z,59.75
2023-02-05T20:51:58.784Z,59.70
2023-02-05T20:54:30.393Z,58.49
2023-02-05T20:57:01.761Z,60.61
2023-02-05T20:59:37.667Z,59.82
2023-02-05T21:02:08.437Z,60.12
2023-02-05T21:04:39.272Z,60.31
2023-02-05T21:07:10.078Z,61.48
2023-02-05T21:09:40.731Z,62.28
2023-02-05T21:12:10.967Z,64.04
2023-02-05T21:14:40.785Z,66.34
2023-02-05T21:17:12.265Z,69.11
2023-02-05T21:19:43.031Z,70.63
2023-02-05T21:22:13.725Z,71.48
2023-02-05T21:24:43.449Z,72.28
2023-02-05T21:27:14.924Z,73.27
2023-02-05T21:29:45.818Z,74.12
2023-02-05T21:32:16.311Z,74.47
2023-02-05T21:34:46.988Z,75.09
2023-02-05T21:37:17.809Z,74.84
2023-02-05T21:39:50.877Z,74.72
2023-02-05T21:42:23.524Z,73.30
2023-02-05T21:44:54.962Z,75.53
2023-02-05T21:47:26.079Z,75.59
2023-02-05T21:49:56.502Z,76.02
2023-02-05T21:52:26.852Z,76.36
2023-02-05T21:54:57.435Z,76.54
2023-02-05T21:57:28.202Z,76.21
2023-02-05T21:59:59.340Z,76.52
2023-02-05T22:02:30.257Z,77.30
2023-02-05T22:05:00.573Z,76.51
2023-02-05T22:07:31.629Z,76.62
2023-02-05T22:10:03.160Z,76.29
2023-02-05T22:12:35.729Z,76.88
2023-02-05T22:15:06.184Z,77.96
2023-02-05T22:17:37.174Z,77.63
2023-02-05T22:20:08.271Z,78.00
2023-02-05T22:22:38.539Z,77.65
2023-02-05T22:25:08.912Z,77.91
2023-02-05T22:27:40.627Z,79.25
2023-02-05T22:30:11.991Z,78.32
2023-02-05T22:32:42.385Z,78.63
2023-02-05T22:35:12.159Z,77.73
2023-02-05T22:37:42.806Z,78.72
2023-02-05T22:40:14.257Z,78.68
2023-02-05T22:42:44.567Z,78.28
2023-02-05T22:45:15.219Z,77.91
2023-02-05T22:47:45.383Z,76.93
2023-02-05T22:50:16.302Z,78.03
2023-02-05T22:52:46.992Z,77.67
2023-02-05T22:55:17.949Z,77.60
2023-02-05T22:57:48.313Z,77.99
2023-02-05T23:00:19.100Z,76.97
2023-02-05T23:02:50.412Z,77.03
2023-02-05T23:05:20.651Z,77.72
2023-02-05T23:07:55.244Z,78.10
2023-02-05T23:10:27.795Z,77.42
2023-02-05T23:12:59.037Z,78.62
2023-02-05T23:15:29.521Z,79.03
2023-02-05T23:17:59.325Z,80.81
2023-02-05T23:20:29.854Z,81.42
2023-02-05T23:23:00.052Z,79.75
2023-02-05T23:25:30.314Z,81.27
2023-02-05T23:28:00.123Z,81.61
2023-02-05T23:30:31.208Z,81.08
2023-02-05T23:33:01.637Z,80.53
2023-02-05T23:35:33.326Z,79.83
2023-02-05T23:38:03.581Z,80.43
2023-02-05T23:40:33.572Z,81.82
2023-02-05T23:43:04.847Z,81.84
2023-02-05T23:45:35.208Z,82.50
2023-02-05T23:48:06.216Z,82.43
2023-02-05T23:50:36.485Z,83.42
2023-02-05T23:53:07.210Z,81.66
2023-02-05T23:55:45.927Z,83.18
2023-02-05T23:58:16.558Z,82.97
